Time;durP1;ratioP1;P1;durP2;ratioP2;P2;SDS_P1;SDS_P2;PMS_P1;PMS_P2;Temp;Humidity;BMP_temperature;BMP_pressure;BME280_temperature;BME280_humidity;BME280_pressure;Samples;Min_cycle;Max_cycle;Signal;HPM_P1;HPM_P2
2023/05/16 00:02:52;;;;;;;2.13;1.85;;;;;;;14.52;50.04;101264.41;10617433;27;20039;-71
2023/05/16 00:07:54;;;;;;;2.58;1.92;;;;;;;14.56;49.84;101264.66;10650168;27;20416;-73
2023/05/16 00:12:56;;;;;;;5.15;1.73;;;;;;;14.71;49.99;101254.25;10652968;27;20038;-69
2023/05/16 00:17:59;;;;;;;2.05;1.85;;;;;;;14.69;49.27;101248.22;10637221;27;20636;-69
2023/05/16 00:23:01;;;;;;;3.78;2.00;;;;;;;14.40;49.85;101241.88;10637330;27;20409;-69
2023/05/16 00:28:03;;;;;;;4.22;2.20;;;;;;;14.29;50.60;101234.81;10649657;27;20047;-69
2023/05/16 00:33:06;;;;;;;2.17;1.90;;;;;;;14.14;49.84;101231.09;10594501;28;20036;-70
2023/05/16 00:38:10;;;;;;;2.92;1.77;;;;;;;14.16;50.29;101228.84;10613794;28;20071;-70
2023/05/16 00:43:13;;;;;;;3.35;2.00;;;;;;;14.07;51.25;101219.56;10569861;28;20046;-71
2023/05/16 00:48:15;;;;;;;5.60;2.33;;;;;;;13.98;50.83;101220.47;10597674;27;20035;-70
2023/05/16 00:53:18;;;;;;;3.65;2.10;;;;;;;14.19;51.39;101222.75;10559395;28;20035;-69
2023/05/16 00:58:21;;;;;;;3.58;2.30;;;;;;;14.17;51.30;101218.63;10578745;28;20054;-69
2023/05/16 01:03:24;;;;;;;3.40;2.30;;;;;;;14.05;51.62;101221.78;10595948;28;20043;-69
2023/05/16 01:08:26;;;;;;;3.90;1.90;;;;;;;14.09;50.70;101213.75;10595199;27;20039;-70
2023/05/16 01:13:44;;;;;;;3.67;2.15;;;;;;;13.68;51.46;101210.53;10576754;28;20051;-71
2023/05/16 01:18:54;;;;;;;3.13;2.10;;;;;;;13.56;51.90;101219.19;10574648;28;20040;-71
2023/05/16 01:24:23;;;;;;;3.45;2.30;;;;;;;13.62;52.58;101212.50;10610968;28;20050;-71
2023/05/16 01:29:25;;;;;;;3.67;2.10;;;;;;;13.53;52.42;101209.53;10574220;27;20054;-70
2023/05/16 01:34:27;;;;;;;1.70;1.55;;;;;;;13.42;52.92;101207.13;10653129;27;20531;-69
2023/05/16 01:39:36;;;;;;;7.88;2.47;;;;;;;13.36;53.16;101203.56;10648768;27;20037;-69
2023/05/16 01:44:44;;;;;;;2.70;2.10;;;;;;;13.18;53.49;101210.56;10613944;27;20343;-69
2023/05/16 01:49:56;;;;;;;2.83;1.90;;;;;;;13.09;53.60;101197.66;10589968;27;20444;-70
2023/05/16 01:54:59;;;;;;;4.95;2.10;;;;;;;13.36;53.37;101192.56;10634522;27;20054;-70
2023/05/16 02:00:03;;;;;;;2.45;2.00;;;;;;;13.45;53.26;101184.50;10630280;27;20043;-69
2023/05/16 02:05:16;;;;;;;2.92;1.90;;;;;;;13.64;52.86;101181.88;10634792;28;20046;-69
2023/05/16 02:10:19;;;;;;;0.85;0.85;;;;;;;13.71;52.35;101174.94;10650366;28;20509;-69
2023/05/16 02:15:21;;;;;;;1.77;1.65;;;;;;;13.72;52.17;101178.53;10614139;28;20391;-69
2023/05/16 02:20:23;;;;;;;3.03;2.08;;;;;;;13.64;51.79;101176.38;10627627;28;20386;-69
2023/05/16 02:25:26;;;;;;;3.42;2.20;;;;;;;13.84;51.38;101182.53;10626992;28;20046;-69
2023/05/16 02:30:28;;;;;;;3.30;1.95;;;;;;;14.38;50.71;101191.63;10650659;28;20501;-71
2023/05/16 02:35:30;;;;;;;2.38;1.92;;;;;;;14.43;50.47;101188.84;10651644;28;20039;-70
2023/05/16 02:40:33;;;;;;;2.38;1.60;;;;;;;14.75;49.36;101177.13;10652972;28;20039;-69
2023/05/16 02:45:35;;;;;;;2.17;1.83;;;;;;;15.12;48.44;101181.91;10635186;28;20508;-70
2023/05/16 02:50:39;;;;;;;2.03;1.90;;;;;;;15.22;48.14;101167.91;10649441;28;20031;-69
2023/05/16 02:55:42;;;;;;;2.05;1.35;;;;;;;15.35;47.55;101160.81;10617156;28;20043;-69
2023/05/16 03:00:44;;;;;;;2.53;1.80;;;;;;;15.59;47.36;101160.72;10659710;27;20039;-70
2023/05/16 03:05:47;;;;;;;4.57;1.60;;;;;;;15.61;47.60;101153.78;10652561;27;20598;-69
2023/05/16 03:10:49;;;;;;;2.08;1.40;;;;;;;15.83;47.00;101152.31;10658861;27;20039;-70
2023/05/16 03:15:51;;;;;;;3.30;2.08;;;;;;;16.05;46.48;101157.16;10640237;27;20043;-70
2023/05/16 03:20:53;;;;;;;3.08;1.88;;;;;;;16.15;46.09;101154.22;10642243;27;20042;-69
2023/05/16 03:25:59;;;;;;;5.03;2.05;;;;;;;15.85;47.05;101148.13;10616658;27;20051;-70
2023/05/16 03:31:01;;;;;;;2.97;1.75;;;;;;;15.80;47.01;101150.97;10622221;27;20051;-68
2023/05/16 03:36:04;;;;;;;2.45;1.60;;;;;;;15.55;47.59;101140.31;10649350;27;20397;-71
2023/05/16 03:41:06;;;;;;;2.88;1.73;;;;;;;15.56;48.46;101136.41;10639239;27;20047;-69
2023/05/16 03:46:08;;;;;;;2.13;1.45;;;;;;;15.42;48.59;101133.59;10636012;27;20058;-70
2023/05/16 03:51:11;;;;;;;2.30;1.67;;;;;;;15.25;48.55;101127.78;10635621;27;20414;-69
2023/05/16 03:56:13;;;;;;;2.45;1.67;;;;;;;15.03;48.87;101128.41;10637359;27;20046;-69
2023/05/16 04:01:15;;;;;;;2.08;1.63;;;;;;;14.59;50.25;101140.63;10622036;27;20395;-69
2023/05/16 04:06:17;;;;;;;2.80;1.73;;;;;;;14.44;50.65;101125.06;10653083;27;20072;-69
2023/05/16 04:11:20;;;;;;;2.22;1.90;;;;;;;14.79;49.81;101120.19;10636440;27;20087;-69
2023/05/16 04:16:22;;;;;;;2.03;1.73;;;;;;;15.60;48.60;101126.41;10620876;27;20046;-70
2023/05/16 04:21:25;;;;;;;2.50;1.58;;;;;;;15.95;47.77;101113.88;10618116;27;20401;-69
2023/05/16 04:26:27;;;;;;;5.85;2.05;;;;;;;16.83;47.13;101117.34;10650329;27;20042;-69
2023/05/16 04:31:30;;;;;;;3.70;1.45;;;;;;;17.70;45.04;101116.09;10650520;27;20413;-70
2023/05/16 04:36:34;;;;;;;1.77;1.50;;;;;;;18.21;43.41;101118.31;10655477;27;20035;-69
2023/05/16 04:41:36;;;;;;;2.63;1.42;;;;;;;18.90;42.28;101112.97;10656845;27;20045;-69
2023/05/16 04:46:38;;;;;;;3.45;1.33;;;;;;;19.10;41.51;101108.75;10639439;27;20047;-69
2023/05/16 04:51:40;;;;;;;3.53;2.13;;;;;;;19.56;41.18;101107.25;10622692;27;20035;-69
2023/05/16 04:56:48;;;;;;;4.68;1.70;;;;;;;19.43;41.44;101109.03;10652687;27;20035;-69
2023/05/16 05:02:16;;;;;;;3.53;1.83;;;;;;;19.80;39.93;101099.19;10629405;27;20047;-69
2023/05/16 05:07:18;;;;;;;2.30;2.00;;;;;;;20.55;40.45;101096.75;10610760;27;20054;-69
2023/05/16 05:12:21;;;;;;;3.67;1.67;;;;;;;20.98;38.30;101103.97;10628505;27;20031;-69
2023/05/16 05:17:23;;;;;;;6.50;2.13;;;;;;;20.84;38.50;101104.28;10643601;27;20049;-70
2023/05/16 05:22:25;;;;;;;6.20;1.80;;;;;;;20.27;39.08;101098.34;10622339;27;20502;-68
2023/05/16 05:27:27;;;;;;;2.78;1.80;;;;;;;20.42;39.60;101090.25;10640089;27;20049;-68
2023/05/16 05:32:34;;;;;;;3.25;1.90;;;;;;;20.53;40.34;101096.25;10633896;27;20035;-69
2023/05/16 05:37:36;;;;;;;;;;;;;;;20.26;38.75;101079.97;10622868;27;20498;-70
2023/05/16 05:42:39;;;;;;;6.63;1.63;;;;;;;20.52;40.08;101085.44;10653373;27;19919;-70
2023/05/16 05:47:41;;;;;;;4.03;2.00;;;;;;;20.41;38.85;101071.06;10652948;27;20162;-70
2023/05/16 05:52:43;;;;;;;2.90;1.50;;;;;;;20.66;38.27;101080.44;10634850;27;20043;-70
2023/05/16 05:57:45;;;;;;;5.50;1.75;;;;;;;21.38;38.63;101070.84;10634156;27;20066;-70
2023/05/16 06:02:48;;;;;;;2.22;1.63;;;;;;;21.85;37.25;101076.06;10633990;27;20031;-70
2023/05/16 06:07:50;;;;;;;3.25;1.60;;;;;;;22.09;37.97;101066.94;10634754;28;20035;-68
2023/05/16 06:12:53;;;;;;;3.78;1.45;;;;;;;22.58;36.04;101078.09;10634432;28;20046;-68
2023/05/16 06:17:58;;;;;;;3.20;1.70;;;;;;;22.23;35.75;101070.22;10634163;28;20041;-68
2023/05/16 06:23:00;;;;;;;1.88;1.30;;;;;;;22.00;37.09;101057.81;10634300;28;20054;-69
2023/05/16 06:28:02;;;;;;;1.95;1.50;;;;;;;22.26;36.36;101063.91;10651892;28;20421;-69
2023/05/16 06:33:16;;;;;;;4.85;1.80;;;;;;;22.88;34.78;101057.06;10636085;27;20039;-69
2023/05/16 06:38:19;;;;;;;3.55;1.70;;;;;;;23.89;33.54;101053.09;10659690;27;20734;-69
2023/05/16 06:43:21;;;;;;;2.63;1.27;;;;;;;24.76;32.82;101054.78;10659494;27;20047;-69
2023/05/16 06:48:23;;;;;;;2.75;1.65;;;;;;;25.18;30.65;101057.75;10659721;27;20043;-69
2023/05/16 06:53:26;;;;;;;6.15;1.60;;;;;;;25.22;29.72;101033.34;10646170;27;20050;-69
2023/05/16 06:58:28;;;;;;;2.72;1.23;;;;;;;25.03;30.08;101033.34;10658979;27;20133;-68
2023/05/16 07:03:30;;;;;;;4.05;1.63;;;;;;;25.71;30.10;101032.69;10659723;27;20039;-70
2023/05/16 07:08:34;;;;;;;2.80;1.40;;;;;;;25.88;27.97;101026.56;10658870;27;20497;-69
2023/05/16 07:13:36;;;;;;;5.07;1.55;;;;;;;26.72;27.33;101020.59;10640148;27;20440;-69
2023/05/16 07:18:39;;;;;;;1.85;1.05;;;;;;;26.27;27.03;101023.56;10658634;27;20039;-69
2023/05/16 07:23:41;;;;;;;3.33;1.00;;;;;;;26.30;26.15;101022.78;10657654;27;20031;-69
2023/05/16 07:28:43;;;;;;;1.23;1.00;;;;;;;25.65;27.17;101017.25;10636193;27;20065;-69
2023/05/16 07:33:45;;;;;;;3.63;1.13;;;;;;;25.76;26.42;101002.25;10645521;27;20046;-70
2023/05/16 07:38:48;;;;;;;3.35;1.30;;;;;;;25.26;26.86;101000.50;10658310;27;20043;-68
2023/05/16 07:43:50;;;;;;;4.03;1.17;;;;;;;25.08;26.97;100985.31;10656324;27;20057;-69
2023/05/16 07:48:52;;;;;;;2.70;1.05;;;;;;;25.38;27.17;100977.88;10657809;27;20508;-69
2023/05/16 07:53:54;;;;;;;5.78;1.40;;;;;;;25.20;26.41;100976.72;10658657;27;20031;-72
2023/05/16 07:58:56;;;;;;;2.63;1.10;;;;;;;25.99;25.27;100999.41;10658338;27;20050;-71
2023/05/16 08:03:58;;;;;;;5.80;1.15;;;;;;;25.71;25.41;100984.91;10657769;27;20035;-72
2023/05/16 08:09:01;;;;;;;5.00;1.88;;;;;;;25.16;25.00;100982.25;10658164;27;20512;-72
2023/05/16 08:14:03;;;;;;;5.35;1.52;;;;;;;24.58;26.35;100985.06;10657393;27;20047;-72
2023/05/16 08:19:06;;;;;;;3.28;1.30;;;;;;;24.58;26.94;100978.63;10656824;27;20524;-71
2023/05/16 08:24:09;;;;;;;3.47;1.33;;;;;;;25.01;26.80;100979.56;10656939;27;20390;-71
2023/05/16 08:29:12;;;;;;;3.78;1.50;;;;;;;25.38;26.02;100983.50;10643653;27;20047;-71
2023/05/16 08:34:14;;;;;;;3.20;1.50;;;;;;;25.12;27.82;100974.94;10614423;28;20043;-71
2023/05/16 08:39:16;;;;;;;3.58;1.95;;;;;;;24.20;28.45;100982.16;10617556;27;20047;-71
2023/05/16 08:44:20;;;;;;;3.42;1.38;;;;;;;23.79;29.00;100970.38;10612295;27;20051;-71
2023/05/16 08:49:25;;;;;;;4.03;1.65;;;;;;;23.72;28.93;100961.78;10618044;27;20043;-71
2023/05/16 08:54:28;;;;;;;5.13;1.85;;;;;;;23.63;30.21;100970.38;10593694;27;20062;-71
2023/05/16 08:59:31;;;;;;;4.47;1.83;;;;;;;23.84;29.01;100960.88;10629542;27;20039;-71
2023/05/16 09:04:34;;;;;;;8.38;1.45;;;;;;;24.13;28.68;100966.00;10580211;28;20445;-71
2023/05/16 09:09:36;;;;;;;1.85;1.30;;;;;;;23.81;29.75;100942.81;10594377;28;20039;-71
2023/05/16 09:14:38;;;;;;;7.40;1.67;;;;;;;23.77;29.25;100947.50;10613794;28;20044;-70
2023/05/16 09:19:43;;;;;;;6.32;1.67;;;;;;;23.52;29.88;100944.03;10596675;28;20051;-71
2023/05/16 09:24:45;;;;;;;4.05;1.80;;;;;;;23.27;30.66;100937.00;10650304;27;20039;-71
2023/05/16 09:29:49;;;;;;;2.22;1.30;;;;;;;23.13;30.32;100957.03;10626005;27;20040;-71
2023/05/16 09:34:53;;;;;;;5.53;1.38;;;;;;;22.75;31.64;100944.34;10579736;27;20050;-71
2023/05/16 09:39:55;;;;;;;5.70;1.70;;;;;;;22.37;31.97;100936.44;10590546;27;20032;-71
2023/05/16 09:44:57;;;;;;;1.73;1.35;;;;;;;22.35;32.05;100935.16;10582721;27;20548;-73
2023/05/16 09:49:59;;;;;;;3.38;1.38;;;;;;;22.45;32.51;100931.88;10573094;28;20036;-72
2023/05/16 09:55:03;;;;;;;4.35;1.92;;;;;;;22.82;31.99;100927.78;10562068;28;20418;-71
2023/05/16 10:00:09;;;;;;;3.05;1.77;;;;;;;22.73;32.14;100913.09;10591612;28;20044;-71
2023/05/16 10:05:11;;;;;;;3.05;1.25;;;;;;;22.41;32.79;100908.59;10556067;28;20240;-71
2023/05/16 10:10:13;;;;;;;2.00;1.42;;;;;;;22.08;32.18;100920.78;10583253;28;20042;-72
2023/05/16 10:15:16;;;;;;;2.85;1.45;;;;;;;21.80;32.99;100909.50;10575030;28;20040;-71
2023/05/16 10:20:19;;;;;;;2.17;1.30;;;;;;;22.12;32.78;100893.75;10606012;28;20027;-71
2023/05/16 10:25:28;;;;;;;1.38;1.20;;;;;;;22.24;31.45;100901.31;10592557;28;20043;-71
2023/05/16 10:30:33;;;;;;;1.95;1.75;;;;;;;22.21;31.54;100880.44;10611011;28;20501;-71
2023/05/16 10:35:37;;;;;;;2.45;1.63;;;;;;;22.44;32.13;100897.50;10599480;28;20496;-71
2023/05/16 10:40:39;;;;;;;1.30;1.15;;;;;;;22.46;31.77;100875.59;10651531;28;20035;-72
2023/05/16 10:45:42;;;;;;;6.68;1.52;;;;;;;22.35;32.29;100894.03;10621645;28;20500;-71
2023/05/16 10:50:45;;;;;;;3.25;2.15;;;;;;;22.46;31.97;100886.78;10564998;28;20042;-72
2023/05/16 10:55:47;;;;;;;2.42;1.73;;;;;;;22.55;31.74;100889.41;10567186;28;20036;-72
2023/05/16 11:01:28;;;;;;;3.92;1.45;;;;;;;22.66;30.91;100868.16;10559716;28;20078;-73
2023/05/16 11:06:41;;;;;;;3.00;1.40;;;;;;;22.81;31.06;100874.97;10569496;28;20040;-73
2023/05/16 11:11:50;;;;;;;1.98;1.55;;;;;;;23.03;30.54;100877.19;10572075;28;20046;-73
2023/05/16 11:17:14;;;;;;;5.50;1.92;;;;;;;22.91;31.33;100876.44;10570275;28;20072;-73
2023/05/16 11:22:22;;;;;;;1.25;1.15;;;;;;;22.74;31.89;100874.78;10575975;27;20043;-73
2023/05/16 11:27:26;;;;;;;1.95;1.40;;;;;;;22.73;31.59;100868.34;10600556;28;20473;-72
2023/05/16 11:32:29;;;;;;;4.15;1.60;;;;;;;22.57;31.12;100861.91;10584549;27;20696;-72
2023/05/16 11:37:31;;;;;;;3.95;1.98;;;;;;;22.33;31.90;100857.22;10566368;27;20045;-72
2023/05/16 11:42:36;;;;;;;5.97;2.63;;;;;;;22.41;32.44;100850.69;10565938;28;20043;-72
2023/05/16 11:47:39;;;;;;;7.95;4.20;;;;;;;22.46;31.97;100842.03;10601198;27;20402;-73
2023/05/16 11:52:43;;;;;;;74.10;29.10;;;;;;;22.53;31.44;100839.41;10605712;27;20036;-73
2023/05/16 11:57:46;;;;;;;16.48;7.78;;;;;;;22.65;31.79;100837.75;10586537;28;20040;-72
2023/05/16 12:02:48;;;;;;;62.40;24.67;;;;;;;22.71;31.48;100827.91;10581772;27;20046;-72
2023/05/16 12:07:54;;;;;;;42.45;13.93;;;;;;;22.71;32.07;100825.09;10611509;27;20533;-73
2023/05/16 12:12:56;;;;;;;11.00;5.95;;;;;;;22.83;31.91;100827.88;10594360;28;20046;-73
2023/05/16 12:18:00;;;;;;;7.80;3.72;;;;;;;22.53;31.37;100819.84;10569043;28;20050;-73
2023/05/16 12:23:03;;;;;;;46.13;17.45;;;;;;;22.34;32.49;100825.31;10564055;27;20070;-73
2023/05/16 12:28:07;;;;;;;37.65;13.88;;;;;;;22.23;32.33;100829.78;10576414;27;20039;-74
2023/05/16 12:33:13;;;;;;;5.97;2.83;;;;;;;22.12;32.69;100818.28;10641285;27;20050;-73
2023/05/16 12:38:16;;;;;;;8.03;4.03;;;;;;;21.97;32.26;100819.00;10652068;27;20046;-75
2023/05/16 12:43:20;;;;;;;7.20;3.25;;;;;;;21.76;32.81;100818.38;10634617;27;20478;-75
2023/05/16 12:48:23;;;;;;;8.32;3.40;;;;;;;21.55;32.88;100808.16;10652524;27;20046;-72
2023/05/16 12:53:27;;;;;;;3.83;1.92;;;;;;;21.58;32.30;100781.50;10633683;27;20043;-71
2023/05/16 12:58:30;;;;;;;7.82;4.63;;;;;;;21.59;32.42;100794.31;10647743;27;20408;-71
2023/05/16 13:03:33;;;;;;;5.10;3.10;;;;;;;21.70;33.10;100797.44;10640086;27;20054;-73
2023/05/16 13:08:35;;;;;;;7.57;3.75;;;;;;;21.80;32.87;100797.75;10645433;27;20039;-73
2023/05/16 13:13:37;;;;;;;8.57;3.60;;;;;;;21.78;32.88;100793.69;10651874;27;20035;-74
2023/05/16 13:18:39;;;;;;;3.67;2.25;;;;;;;21.75;32.78;100781.25;10638335;27;20043;-74
2023/05/16 13:23:42;;;;;;;5.05;1.70;;;;;;;21.73;32.65;100780.78;10646800;27;20509;-73
2023/05/16 13:28:44;;;;;;;2.88;1.92;;;;;;;21.70;32.53;100780.69;10642319;27;20043;-75
2023/05/16 13:33:46;;;;;;;2.10;1.40;;;;;;;21.59;32.15;100766.38;10585605;27;20036;-73
2023/05/16 13:38:48;;;;;;;1.20;1.10;;;;;;;21.72;31.80;100761.59;10606975;27;20050;-72
2023/05/16 13:43:50;;;;;;;1.77;1.45;;;;;;;21.79;32.12;100762.59;10616988;27;20040;-75
2023/05/16 13:48:52;;;;;;;2.03;1.52;;;;;;;21.78;31.99;100768.53;10601942;27;20043;-74
2023/05/16 13:53:55;;;;;;;3.88;1.52;;;;;;;21.83;32.21;100763.50;10594593;27;20043;-74
2023/05/16 13:58:58;;;;;;;1.50;1.30;;;;;;;21.68;31.98;100755.88;10606870;28;20039;-74
2023/05/16 14:04:01;;;;;;;2.63;1.40;;;;;;;21.58;32.29;100750.78;10602132;28;20044;-74
2023/05/16 14:09:03;;;;;;;2.92;1.77;;;;;;;21.53;32.11;100748.25;10597403;28;20040;-74
2023/05/16 14:14:05;;;;;;;4.15;1.52;;;;;;;21.64;32.05;100749.38;10586762;28;20090;-74
2023/05/16 14:19:08;;;;;;;1.98;1.73;;;;;;;21.56;32.29;100747.53;10595497;28;20409;-74
2023/05/16 14:24:10;;;;;;;3.83;1.83;;;;;;;21.50;33.17;100760.09;10603051;28;20038;-74
2023/05/16 14:29:12;;;;;;;3.80;1.52;;;;;;;21.33;35.17;100763.97;10618658;28;20531;-74
2023/05/16 14:34:15;;;;;;;5.43;2.13;;;;;;;20.52;39.32;100776.00;10606583;28;20036;-74
2023/05/16 14:39:17;;;;;;;4.15;1.90;;;;;;;20.23;40.62;100782.47;10614791;28;20043;-74
2023/05/16 14:44:20;;;;;;;5.88;2.00;;;;;;;20.03;42.07;100776.59;10609865;28;20048;-74
2023/05/16 14:49:22;;;;;;;5.38;1.85;;;;;;;19.92;42.83;100783.72;10611440;28;20497;-76
2023/05/16 14:54:24;;;;;;;2.65;1.77;;;;;;;19.76;43.24;100775.19;10589085;28;20050;-76
2023/05/16 14:59:27;;;;;;;3.45;1.98;;;;;;;19.77;43.34;100779.59;10598451;28;20497;-76
2023/05/16 15:04:29;;;;;;;3.25;2.17;;;;;;;19.60;43.98;100784.47;10595530;27;20043;-76
2023/05/16 15:09:31;;;;;;;3.40;2.15;;;;;;;19.61;44.35;100797.25;10619318;27;20039;-76
2023/05/16 15:14:33;;;;;;;2.53;2.05;;;;;;;19.30;46.37;100808.72;10586234;28;20735;-76
2023/05/16 15:19:35;;;;;;;4.97;2.00;;;;;;;18.83;48.59;100811.53;10581000;28;20035;-76
2023/05/16 15:24:37;;;;;;;3.97;2.00;;;;;;;18.60;49.09;100813.72;10609158;27;20537;-76
2023/05/16 15:29:40;;;;;;;3.50;1.70;;;;;;;18.56;50.25;100812.72;10589374;27;20050;-75
2023/05/16 15:34:42;;;;;;;5.22;2.08;;;;;;;18.51;51.27;100821.22;10653113;27;20035;-75
2023/05/16 15:39:44;;;;;;;7.40;2.40;;;;;;;18.60;51.00;100808.16;10635170;27;20054;-76
2023/05/16 15:44:46;;;;;;;2.50;2.30;;;;;;;18.56;52.01;100798.81;10644790;27;20560;-74
2023/05/16 15:49:48;;;;;;;3.97;2.40;;;;;;;18.55;52.04;100799.97;10638572;27;20413;-74
2023/05/16 15:54:50;;;;;;;5.72;2.50;;;;;;;18.42;53.04;100801.81;10638553;27;20039;-74
2023/05/16 15:59:53;;;;;;;3.60;2.38;;;;;;;18.28;53.47;100810.34;10638166;27;20050;-74
2023/05/16 16:04:55;;;;;;;4.25;2.20;;;;;;;18.08;54.59;100803.50;10654197;27;20035;-74
2023/05/16 16:09:58;;;;;;;5.72;2.25;;;;;;;17.95;55.35;100811.97;10654742;27;20532;-74
2023/05/16 16:15:01;;;;;;;3.40;1.95;;;;;;;17.94;55.86;100813.94;10635409;27;20035;-75
2023/05/16 16:20:03;;;;;;;2.38;2.17;;;;;;;18.00;56.93;100803.47;10636517;27;20050;-75
2023/05/16 16:25:06;;;;;;;2.83;1.95;;;;;;;17.73;57.62;100780.47;10632106;27;20046;-74
2023/05/16 16:30:10;;;;;;;2.58;2.25;;;;;;;17.49;58.96;100761.47;10635405;27;20058;-74
2023/05/16 16:35:18;;;;;;;2.42;2.15;;;;;;;17.37;61.05;100754.94;10605030;27;20035;-74
2023/05/16 16:40:20;;;;;;;2.95;2.47;;;;;;;17.13;62.31;100772.81;10654543;27;20035;-75
2023/05/16 16:45:23;;;;;;;3.67;2.25;;;;;;;17.03;62.77;100778.66;10652864;27;20057;-74
2023/05/16 16:50:25;;;;;;;3.08;2.72;;;;;;;17.24;62.46;100778.88;10647373;27;20043;-75
2023/05/16 16:55:27;;;;;;;5.18;3.15;;;;;;;17.13;63.09;100783.91;10633859;27;20527;-74
2023/05/16 17:00:31;;;;;;;4.88;2.97;;;;;;;17.21;62.73;100798.13;10636257;27;20536;-75
2023/05/16 17:05:33;;;;;;;4.30;2.83;;;;;;;17.35;62.39;100802.38;10617535;27;20042;-74
2023/05/16 17:10:35;;;;;;;4.72;2.72;;;;;;;17.36;62.17;100803.22;10652363;27;20440;-75
2023/05/16 17:15:39;;;;;;;4.05;2.67;;;;;;;17.33;62.35;100806.63;10630234;27;20046;-75
2023/05/16 17:20:41;;;;;;;4.95;3.28;;;;;;;17.32;62.93;100816.09;10655530;27;20049;-75
2023/05/16 17:25:44;;;;;;;3.88;2.92;;;;;;;17.43;62.21;100806.34;10654589;27;20058;-75
2023/05/16 17:30:46;;;;;;;5.97;3.50;;;;;;;17.18;62.99;100800.41;10594640;28;20051;-75
2023/05/16 17:35:48;;;;;;;4.47;2.67;;;;;;;16.95;63.07;100806.34;10612430;28;20498;-75
2023/05/16 17:40:50;;;;;;;7.82;3.10;;;;;;;17.10;63.89;100803.97;10612939;28;20043;-74
2023/05/16 17:45:53;;;;;;;4.65;2.72;;;;;;;17.04;63.21;100805.25;10594562;28;20043;-74
2023/05/16 17:50:55;;;;;;;7.95;3.60;;;;;;;16.76;63.13;100789.97;10552176;28;20044;-74
2023/05/16 17:55:58;;;;;;;4.82;2.58;;;;;;;16.62;63.55;100792.78;10584117;27;20047;-77
2023/05/16 18:01:02;;;;;;;4.07;2.60;;;;;;;16.63;63.39;100801.91;10568038;28;20039;-73
2023/05/16 18:06:05;;;;;;;4.63;3.08;;;;;;;16.63;64.17;100802.72;10607508;28;20054;-73
2023/05/16 18:11:08;;;;;;;5.72;2.78;;;;;;;16.67;62.95;100800.19;10610527;28;20063;-73
2023/05/16 18:16:10;;;;;;;4.38;2.80;;;;;;;16.62;63.04;100791.97;10609716;28;20556;-74
2023/05/16 18:21:17;;;;;;;3.38;2.50;;;;;;;16.67;62.58;100792.69;10611367;28;20038;-73
2023/05/16 18:26:20;;;;;;;3.30;2.65;;;;;;;16.68;61.80;100776.88;10616191;28;20048;-74
2023/05/16 18:31:22;;;;;;;6.68;3.05;;;;;;;16.71;60.99;100779.03;10594303;28;20043;-75
2023/05/16 18:36:25;;;;;;;5.32;2.95;;;;;;;16.67;61.64;100769.72;10626299;27;20043;-75
2023/05/16 18:41:27;;;;;;;6.57;2.75;;;;;;;16.78;61.50;100759.97;10602694;28;20035;-74
2023/05/16 18:46:30;;;;;;;4.65;3.22;;;;;;;16.34;62.14;100774.72;10601201;28;20055;-75
2023/05/16 18:51:32;;;;;;;5.25;2.65;;;;;;;16.12;62.69;100761.69;10620283;28;20046;-72
2023/05/16 18:56:34;;;;;;;3.55;2.22;;;;;;;16.24;62.39;100737.84;10600164;28;20435;-72
2023/05/16 19:01:36;;;;;;;7.75;2.85;;;;;;;16.03;63.90;100716.53;10605571;27;20035;-73
2023/05/16 19:06:38;;;;;;;6.45;3.10;;;;;;;15.70;64.81;100714.00;10602828;28;20045;-73
2023/05/16 19:11:40;;;;;;;5.35;2.83;;;;;;;15.64;65.63;100702.25;10596829;27;20042;-74
2023/05/16 19:16:42;;;;;;;3.65;2.70;;;;;;;15.58;66.41;100699.88;10594069;28;20039;-74
2023/05/16 19:21:45;;;;;;;4.25;2.47;;;;;;;15.63;65.76;100691.53;10571454;27;20407;-75
2023/05/16 19:26:47;;;;;;;3.13;2.40;;;;;;;15.38;66.88;100679.06;10624032;27;20062;-74
2023/05/16 19:31:49;;;;;;;4.45;2.60;;;;;;;15.34;67.27;100673.34;10643301;27;20039;-73
2023/05/16 19:36:52;;;;;;;3.85;2.38;;;;;;;15.34;67.25;100675.28;10666508;27;20042;-74
2023/05/16 19:41:54;;;;;;;4.85;3.20;;;;;;;15.41;67.53;100669.31;10652532;27;20035;-73
2023/05/16 19:46:56;;;;;;;4.00;2.38;;;;;;;15.15;67.83;100669.94;10661776;27;20055;-73
2023/05/16 19:51:58;;;;;;;7.82;3.60;;;;;;;14.94;68.31;100668.75;10648246;27;20035;-72
2023/05/16 19:57:00;;;;;;;3.72;2.67;;;;;;;14.92;69.57;100660.75;10642805;27;20028;-73
2023/05/16 20:02:03;;;;;;;4.53;2.95;;;;;;;15.24;68.69;100654.22;10645208;27;20515;-72
2023/05/16 20:07:06;;;;;;;6.07;3.70;;;;;;;15.35;68.23;100647.34;10693353;27;20514;-72
2023/05/16 20:12:08;;;;;;;6.32;3.08;;;;;;;15.11;68.72;100637.69;10657191;27;20035;-72
2023/05/16 20:17:10;;;;;;;4.05;3.10;;;;;;;15.02;68.00;100626.56;10662291;27;20043;-73
2023/05/16 20:22:13;;;;;;;4.22;3.35;;;;;;;15.08;68.47;100637.16;10658380;27;20046;-73
2023/05/16 20:27:15;;;;;;;4.75;2.97;;;;;;;15.07;68.54;100624.47;10665085;27;20420;-73
2023/05/16 20:32:18;;;;;;;4.95;2.92;;;;;;;15.02;68.59;100627.38;10623128;27;20552;-71
2023/05/16 20:37:25;;;;;;;5.18;3.10;;;;;;;15.02;68.65;100626.56;10637730;27;20039;-74
2023/05/16 20:42:27;;;;;;;3.55;2.65;;;;;;;15.06;68.18;100630.31;10634299;27;20034;-74
2023/05/16 20:47:29;;;;;;;6.53;2.90;;;;;;;15.11;68.68;100623.88;10618275;27;20547;-75
2023/05/16 20:52:32;;;;;;;4.43;2.55;;;;;;;15.15;68.13;100619.34;10668812;27;20039;-75
2023/05/16 20:57:34;;;;;;;6.65;2.83;;;;;;;15.21;67.82;100605.09;10653630;27;20523;-73
2023/05/16 21:02:36;;;;;;;3.50;3.05;;;;;;;15.20;67.67;100605.41;10656613;27;20047;-74
2023/05/16 21:07:38;;;;;;;4.18;2.75;;;;;;;15.21;67.17;100604.28;10659253;27;20043;-73
2023/05/16 21:12:41;;;;;;;3.17;1.83;;;;;;;15.23;66.55;100594.53;10637370;27;20045;-73
2023/05/16 21:17:44;;;;;;;4.75;2.70;;;;;;;15.26;66.06;100590.31;10630788;27;20043;-70
2023/05/16 21:22:46;;;;;;;3.65;2.33;;;;;;;15.26;66.27;100596.66;10654556;27;20440;-70
2023/05/16 21:27:48;;;;;;;7.75;2.67;;;;;;;15.17;65.77;100592.22;10640928;27;20047;-72
2023/05/16 21:32:51;;;;;;;2.40;2.17;;;;;;;15.04;66.47;100580.06;10642725;27;20386;-72
2023/05/16 21:37:53;;;;;;;4.93;3.20;;;;;;;14.97;66.23;100585.22;10643036;27;20051;-72
2023/05/16 21:42:55;;;;;;;3.72;3.13;;;;;;;14.93;66.00;100578.69;10583188;27;20138;-71
2023/05/16 21:47:57;;;;;;;4.40;2.50;;;;;;;14.90;66.90;100579.28;10614564;27;20386;-72
2023/05/16 21:53:00;;;;;;;7.68;3.13;;;;;;;14.80;67.25;100577.59;10646150;27;20054;-72
2023/05/16 21:58:02;;;;;;;2.53;2.20;;;;;;;14.76;67.03;100568.31;10657579;27;20047;-71
2023/05/16 22:03:04;;;;;;;5.47;2.72;;;;;;;14.78;67.27;100568.81;10625693;27;20039;-72
2023/05/16 22:08:09;;;;;;;4.70;2.85;;;;;;;14.74;67.72;100565.00;10640708;27;20528;-72
2023/05/16 22:13:11;;;;;;;3.45;2.50;;;;;;;14.71;67.52;100566.44;10631709;27;20028;-72
2023/05/16 22:18:13;;;;;;;4.55;3.22;;;;;;;14.73;67.94;100575.25;10585164;28;20543;-73
2023/05/16 22:23:15;;;;;;;4.00;3.10;;;;;;;14.67;67.63;100564.63;10637281;27;21679;-74
2023/05/16 22:28:18;;;;;;;2.17;1.98;;;;;;;14.60;68.16;100584.41;10657578;27;20054;-74
2023/05/16 22:33:22;;;;;;;4.15;2.95;;;;;;;14.54;68.39;100560.75;10629390;27;20035;-73
2023/05/16 22:38:24;;;;;;;3.70;2.88;;;;;;;14.54;68.27;100559.94;10617792;27;20035;-72
2023/05/16 22:43:26;;;;;;;3.53;2.40;;;;;;;14.56;68.07;100561.25;10607284;27;20497;-72
2023/05/16 22:48:28;;;;;;;4.93;3.05;;;;;;;14.51;68.74;100577.94;10603040;28;20046;-72
2023/05/16 22:53:30;;;;;;;6.45;3.63;;;;;;;14.48;68.33;100575.81;10632197;27;20050;-74
2023/05/16 22:58:33;;;;;;;4.40;2.97;;;;;;;14.48;67.99;100575.81;10633981;27;20101;-74
2023/05/16 23:03:36;;;;;;;4.22;3.05;;;;;;;14.51;67.80;100580.72;10639757;27;20062;-73
2023/05/16 23:08:38;;;;;;;3.55;2.72;;;;;;;14.48;68.41;100573.88;10607520;28;20047;-75
2023/05/16 23:13:40;;;;;;;3.47;2.60;;;;;;;14.52;68.09;100582.34;10640121;27;20497;-74